createdAt,value
2023-04-05T00:01:08.647Z,7.83
2023-04-05T00:03:10.270Z,7.82
2023-04-05T00:05:12.442Z,7.81
2023-04-05T00:07:13.856Z,7.79
2023-04-05T00:09:15.340Z,7.78
2023-04-05T00:11:17.679Z,7.77
2023-04-05T00:13:20.885Z,7.76
2023-04-05T00:15:26.541Z,7.74
2023-04-05T00:17:34.382Z,7.73
2023-04-05T00:19:40.815Z,7.72
2023-04-05T00:21:42.511Z,7.69
2023-04-05T00:23:45.129Z,7.66
2023-04-05T00:25:47.126Z,7.67
2023-04-05T00:27:48.616Z,7.67
2023-04-05T00:29:55.575Z,7.67
2023-04-05T00:32:02.932Z,7.66
2023-04-05T00:34:06.014Z,7.64
2023-04-05T00:36:20.457Z,7.62
2023-04-05T00:38:25.959Z,7.60
2023-04-05T00:40:27.760Z,7.58
2023-04-05T00:42:30.604Z,7.57
2023-04-05T00:44:38.817Z,7.55
2023-04-05T00:46:41.943Z,7.54
2023-04-05T00:48:43.862Z,7.52
2023-04-05T00:50:49.098Z,7.51
2023-04-05T00:52:51.942Z,7.50
2023-04-05T00:54:56.821Z,7.48
2023-04-05T00:56:59.875Z,7.46
2023-04-05T00:59:01.755Z,7.44
2023-04-05T01:01:18.621Z,7.45
2023-04-05T01:03:26.221Z,7.42
2023-04-05T01:05:40.320Z,7.39
2023-04-05T01:07:53.263Z,7.40
2023-04-05T01:10:00.351Z,7.37
2023-04-05T01:12:06.806Z,7.34
2023-04-05T01:14:09.511Z,7.35
2023-04-05T01:16:11.817Z,7.33
2023-04-05T01:18:14.290Z,7.32
2023-04-05T01:20:15.831Z,7.29
2023-04-05T01:22:40.395Z,7.28
2023-04-05T01:25:10.989Z,7.26
2023-04-05T01:27:22.674Z,7.22
2023-04-05T01:30:04.023Z,7.21
2023-04-05T01:32:39.268Z,7.18
2023-04-05T01:34:51.976Z,7.15
2023-04-05T01:37:06.017Z,7.14
2023-04-05T01:39:11.493Z,7.12
2023-04-05T01:41:13.331Z,7.09
2023-04-05T01:43:17.981Z,7.08
2023-04-05T01:45:19.710Z,7.05
2023-04-05T01:47:21.753Z,7.04
2023-04-05T01:49:24.321Z,7.01
2023-04-05T01:51:26.437Z,7.00
2023-04-05T01:53:27.874Z,6.97
2023-04-05T01:55:29.557Z,6.97
2023-04-05T01:57:31.178Z,6.95
2023-04-05T01:59:34.061Z,6.94
2023-04-05T02:01:37.950Z,6.92
2023-04-05T02:03:42.143Z,6.90
2023-04-05T02:05:49.767Z,6.89
2023-04-05T02:07:51.371Z,6.88
2023-04-05T02:09:54.992Z,6.87
2023-04-05T02:11:56.672Z,6.87
2023-04-05T02:13:58.421Z,6.86
2023-04-05T02:16:00.240Z,6.85
2023-04-05T02:18:03.955Z,6.84
2023-04-05T02:20:07.863Z,6.83
2023-04-05T02:22:09.410Z,6.80
2023-04-05T02:24:13.538Z,6.80
2023-04-05T02:26:15.430Z,6.81
2023-04-05T02:28:16.942Z,6.79
2023-04-05T02:30:18.532Z,6.80
2023-04-05T02:32:21.130Z,6.78
2023-04-05T02:34:23.037Z,6.78
2023-04-05T02:36:28.241Z,6.79
2023-04-05T02:38:29.739Z,6.78
2023-04-05T02:40:34.082Z,6.78
2023-04-05T02:42:38.803Z,6.75
2023-04-05T02:44:40.587Z,6.74
2023-04-05T02:46:48.437Z,6.74
2023-04-05T02:48:49.956Z,6.74
2023-04-05T02:50:56.024Z,6.74
2023-04-05T02:52:57.566Z,6.73
2023-04-05T02:54:59.625Z,6.72
2023-04-05T02:57:05.249Z,6.72
2023-04-05T02:59:20.634Z,6.71
2023-04-05T03:01:22.825Z,6.69
2023-04-05T03:03:24.675Z,6.68
2023-04-05T03:05:26.257Z,6.67
2023-04-05T03:07:28.266Z,6.66
2023-04-05T03:09:33.647Z,6.66
2023-04-05T03:11:40.885Z,6.67
2023-04-05T03:13:45.372Z,6.67
2023-04-05T03:15:55.133Z,6.64
2023-04-05T03:17:58.656Z,6.65
2023-04-05T03:20:00.872Z,6.66
2023-04-05T03:22:02.694Z,6.65
2023-04-05T03:24:08.296Z,6.64
2023-04-05T03:26:16.692Z,6.62
2023-04-05T03:28:24.487Z,6.63
2023-04-05T03:30:29.538Z,6.61
2023-04-05T03:32:37.464Z,6.59
2023-04-05T03:34:47.995Z,6.57
2023-04-05T03:36:51.423Z,6.53
2023-04-05T03:39:02.564Z,6.49
2023-04-05T03:41:04.327Z,6.46
2023-04-05T03:43:05.939Z,6.44
2023-04-05T03:45:08.554Z,6.44
2023-04-05T03:47:10.871Z,6.43
2023-04-05T03:49:16.220Z,6.44
2023-04-05T03:51:20.551Z,6.44
2023-04-05T03:53:24.873Z,6.42
2023-04-05T03:55:37.270Z,6.43
2023-04-05T03:57:41.825Z,6.42
2023-04-05T03:59:55.693Z,6.41
2023-04-05T04:01:58.633Z,6.42
2023-04-05T04:04:00.389Z,6.41
2023-04-05T04:06:04.384Z,6.40
2023-04-05T04:08:11.109Z,6.40
2023-04-05T04:10:16.929Z,6.39
2023-04-05T04:12:22.351Z,6.37
2023-04-05T04:14:39.024Z,6.37
2023-04-05T04:16:50.532Z,6.35
2023-04-05T04:19:08.102Z,6.34
2023-04-05T04:21:39.465Z,6.33
2023-04-05T04:23:58.985Z,6.32
2023-04-05T04:26:29.145Z,6.30
2023-04-05T04:28:54.190Z,6.29
2023-04-05T04:31:07.150Z,6.29
2023-04-05T04:33:44.068Z,6.27
2023-04-05T04:35:48.265Z,6.26
2023-04-05T04:38:07.977Z,6.26
2023-04-05T04:40:39.274Z,6.24
2023-04-05T04:42:58.754Z,6.25
2023-04-05T04:45:21.102Z,6.20
2023-04-05T04:47:40.110Z,6.19
2023-04-05T04:50:04.997Z,6.18
2023-04-05T04:52:06.500Z,6.19
2023-04-05T04:54:07.989Z,6.18
2023-04-05T04:56:10.163Z,6.17
2023-04-05T04:58:13.349Z,6.17
2023-04-05T05:00:18.106Z,6.17
2023-04-05T05:02:32.134Z,6.15
2023-04-05T05:04:37.149Z,6.15
2023-04-05T05:06:38.956Z,6.15
2023-04-05T05:08:40.553Z,6.15
2023-04-05T05:10:42.773Z,6.14
2023-04-05T05:12:45.285Z,6.14
2023-04-05T05:14:50.690Z,6.14
2023-04-05T05:16:54.673Z,6.15
2023-04-05T05:18:56.251Z,6.15
2023-04-05T05:21:02.001Z,6.14
2023-04-05T05:23:05.327Z,6.15
2023-04-05T05:25:08.654Z,6.14
2023-04-05T05:27:10.203Z,6.15
2023-04-05T05:29:11.740Z,6.16
2023-04-05T05:31:17.950Z,6.17
2023-04-05T05:33:19.764Z,6.16
2023-04-05T05:35:21.583Z,6.18
2023-04-05T05:37:32.211Z,6.17
2023-04-05T05:39:33.716Z,6.20
2023-04-05T05:41:35.464Z,6.21
2023-04-05T05:43:36.877Z,6.23
2023-04-05T05:45:38.428Z,6.24
2023-04-05T05:47:40.033Z,6.25
2023-04-05T05:49:41.648Z,6.26
2023-04-05T05:51:46.409Z,6.28
2023-04-05T05:53:48.020Z,6.29
2023-04-05T05:55:49.667Z,6.29
2023-04-05T05:57:52.914Z,6.33
2023-04-05T05:59:57.214Z,6.35
2023-04-05T06:02:01.847Z,6.38
2023-04-05T06:04:08.995Z,6.42
2023-04-05T06:06:11.188Z,6.44
2023-04-05T06:08:12.764Z,6.45
2023-04-05T06:10:15.441Z,6.48
2023-04-05T06:12:17.113Z,6.51
2023-04-05T06:14:18.896Z,6.54
2023-04-05T06:16:21.453Z,6.56
2023-04-05T06:18:22.925Z,6.59
2023-04-05T06:20:28.554Z,6.63
2023-04-05T06:22:30.190Z,6.68
2023-04-05T06:24:32.256Z,6.71
2023-04-05T06:26:34.173Z,6.74
2023-04-05T06:28:36.027Z,6.81
2023-04-05T06:30:37.766Z,6.86
2023-04-05T06:32:39.256Z,6.91
2023-04-05T06:34:48.254Z,6.97
2023-04-05T06:36:50.110Z,7.03
2023-04-05T06:38:52.497Z,7.10
2023-04-05T06:40:53.984Z,7.16
2023-04-05T06:42:55.473Z,7.23
2023-04-05T06:45:04.214Z,7.36
2023-04-05T06:47:08.848Z,7.46
2023-04-05T06:49:10.355Z,7.58
2023-04-05T06:51:11.791Z,7.67
2023-04-05T06:53:18.284Z,7.77
2023-04-05T06:55:21.729Z,7.87
2023-04-05T06:57:24.333Z,8.00
2023-04-05T06:59:27.698Z,8.12
2023-04-05T07:01:29.518Z,8.24
2023-04-05T07:03:31.157Z,8.35
2023-04-05T07:05:33.045Z,8.49
2023-04-05T07:07:42.402Z,8.62
2023-04-05T07:09:43.922Z,8.79
2023-04-05T07:11:45.757Z,8.96
2023-04-05T07:13:47.704Z,9.29
2023-04-05T07:15:53.193Z,9.44
2023-04-05T07:17:54.775Z,9.59
2023-04-05T07:19:56.388Z,9.74
2023-04-05T07:21:59.270Z,9.89
2023-04-05T07:24:01.982Z,10.03
2023-04-05T07:26:07.972Z,10.17
2023-04-05T07:28:09.991Z,10.30
2023-04-05T07:30:12.812Z,10.43
2023-04-05T07:32:16.914Z,10.54
2023-04-05T07:34:18.561Z,10.69
2023-04-05T07:36:20.514Z,10.80
2023-04-05T07:38:22.405Z,10.90
2023-04-05T07:40:23.997Z,11.01
2023-04-05T07:42:26.032Z,11.13
2023-04-05T07:44:27.587Z,11.24
2023-04-05T07:46:29.983Z,11.35
2023-04-05T07:48:31.708Z,11.47
2023-04-05T07:50:34.653Z,11.60
2023-04-05T07:52:36.505Z,11.71
2023-04-05T07:54:39.646Z,11.83
2023-04-05T07:56:44.005Z,11.94
2023-04-05T07:58:45.612Z,12.05
2023-04-05T08:00:47.172Z,12.16
2023-04-05T08:02:48.734Z,12.28
2023-04-05T08:04:50.565Z,12.39
2023-04-05T08:06:52.676Z,12.48
2023-04-05T08:08:54.240Z,12.60
2023-04-05T08:10:55.810Z,12.71
2023-04-05T08:12:57.278Z,12.83
2023-04-05T08:14:58.742Z,12.94
2023-04-05T08:17:00.395Z,13.04
2023-04-05T08:19:02.162Z,13.16
2023-04-05T08:21:03.691Z,13.27
2023-04-05T08:23:05.707Z,13.39
2023-04-05T08:25:07.985Z,13.49
2023-04-05T08:27:09.648Z,13.63
2023-04-05T08:29:13.941Z,13.74
2023-04-05T08:31:15.524Z,13.87
2023-04-05T08:33:17.106Z,13.99
2023-04-05T08:35:18.660Z,14.09
2023-04-05T08:37:20.360Z,14.19
2023-04-05T08:39:24.096Z,14.30
2023-04-05T08:41:30.013Z,14.40
2023-04-05T08:43:45.313Z,14.51
2023-04-05T08:45:50.680Z,14.63
2023-04-05T08:47:54.099Z,14.75
2023-04-05T08:49:57.329Z,14.87
2023-04-05T08:52:01.047Z,14.96
2023-04-05T08:54:04.884Z,15.06
2023-04-05T08:56:07.342Z,15.15
2023-04-05T08:58:13.834Z,15.22
2023-04-05T09:00:16.805Z,15.32
2023-04-05T09:02:22.920Z,15.41
2023-04-05T09:04:31.306Z,15.50
2023-04-05T09:06:35.505Z,15.61
2023-04-05T09:08:38.770Z,15.70
2023-04-05T09:10:41.150Z,15.76
2023-04-05T09:12:42.897Z,15.82
2023-04-05T09:14:44.794Z,15.88
2023-04-05T09:16:47.471Z,15.93
2023-04-05T09:18:49.240Z,15.98
2023-04-05T09:20:50.957Z,16.04
2023-04-05T09:22:52.824Z,16.09
2023-04-05T09:24:57.352Z,16.12
2023-04-05T09:27:09.468Z,16.16
2023-04-05T09:29:30.886Z,16.21
2023-04-05T09:31:36.056Z,16.29
2023-04-05T09:33:43.275Z,16.35
2023-04-05T09:35:44.936Z,16.44
2023-04-05T09:37:54.555Z,16.50
2023-04-05T09:40:06.839Z,16.56
2023-04-05T09:42:11.750Z,16.59
2023-04-05T09:44:15.324Z,16.58
2023-04-05T09:46:47.348Z,16.57
2023-04-05T09:48:50.035Z,16.58
2023-04-05T09:50:51.487Z,16.58
2023-04-05T09:53:06.754Z,16.58
2023-04-05T09:55:09.586Z,16.57
2023-04-05T09:57:11.121Z,16.57
2023-04-05T09:59:14.155Z,16.58
2023-04-05T10:01:17.179Z,16.61
2023-04-05T10:03:22.264Z,16.64
2023-04-05T10:05:33.813Z,16.66
2023-04-05T10:07:38.625Z,16.67
2023-04-05T10:09:41.626Z,16.65
2023-04-05T10:11:45.148Z,16.64
2023-04-05T10:13:49.178Z,16.61
2023-04-05T10:15:53.667Z,16.60
2023-04-05T10:18:13.059Z,16.56
2023-04-05T10:20:18.252Z,16.58
2023-04-05T10:22:32.230Z,16.63
2023-04-05T10:25:03.200Z,16.73
2023-04-05T10:27:11.459Z,16.87
2023-04-05T10:29:19.779Z,16.98
2023-04-05T10:31:51.219Z,17.12
2023-04-05T10:34:06.150Z,17.30
2023-04-05T10:36:39.971Z,17.41
2023-04-05T10:39:02.424Z,17.45
2023-04-05T10:41:10.290Z,17.42
2023-04-05T10:43:17.613Z,17.39
2023-04-05T10:45:22.288Z,17.32
2023-04-05T10:47:26.847Z,17.25
2023-04-05T10:49:42.605Z,17.13
2023-04-05T10:51:44.228Z,17.04
2023-04-05T10:53:48.032Z,16.98
2023-04-05T10:55:52.252Z,16.89
2023-04-05T10:57:54.879Z,16.85
2023-04-05T10:59:57.154Z,16.86
2023-04-05T11:01:59.062Z,16.90
2023-04-05T11:04:12.837Z,16.96
2023-04-05T11:06:29.898Z,17.05
2023-04-05T11:08:32.219Z,17.17
2023-04-05T11:10:39.123Z,17.29
2023-04-05T11:12:46.900Z,17.40
2023-04-05T11:14:48.415Z,17.51
2023-04-05T11:16:59.971Z,17.62
2023-04-05T11:19:01.738Z,17.74
2023-04-05T11:21:08.146Z,17.82
2023-04-05T11:23:14.477Z,17.92
2023-04-05T11:25:24.753Z,18.02
2023-04-05T11:27:34.108Z,18.14
2023-04-05T11:29:52.195Z,18.22
2023-04-05T11:32:08.009Z,18.32
2023-04-05T11:34:12.589Z,18.44
2023-04-05T11:36:36.913Z,18.53
2023-04-05T11:38:41.023Z,18.64
2023-04-05T11:40:43.573Z,18.73
2023-04-05T11:42:45.481Z,18.82
2023-04-05T11:44:49.081Z,18.89
2023-04-05T11:46:51.945Z,18.95
2023-04-05T11:48:53.457Z,19.01
2023-04-05T11:50:57.070Z,19.05
2023-04-05T11:53:11.939Z,19.09
2023-04-05T11:55:13.585Z,19.16
2023-04-05T11:57:20.851Z,19.21
2023-04-05T11:59:29.437Z,19.26
2023-04-05T12:01:31.465Z,19.30
2023-04-05T12:03:34.602Z,19.35
2023-04-05T12:05:46.703Z,19.39
2023-04-05T12:07:54.470Z,19.43
2023-04-05T12:10:11.120Z,19.45
2023-04-05T12:12:18.793Z,19.50
2023-04-05T12:14:23.734Z,19.53
2023-04-05T12:16:26.023Z,19.58
2023-04-05T12:18:28.873Z,19.64
2023-04-05T12:20:30.845Z,19.69
2023-04-05T12:22:32.480Z,19.74
2023-04-05T12:24:34.237Z,19.79
2023-04-05T12:26:36.006Z,19.82
2023-04-05T12:28:57.272Z,19.83
2023-04-05T12:30:59.958Z,19.90
2023-04-05T12:33:09.620Z,19.93
2023-04-05T12:35:44.754Z,19.97
2023-04-05T12:37:50.724Z,20.03
2023-04-05T12:39:54.638Z,20.05
2023-04-05T12:42:02.412Z,20.08
2023-04-05T12:44:15.657Z,20.08
2023-04-05T12:46:18.090Z,20.12
2023-04-05T12:48:25.883Z,20.14
2023-04-05T12:50:29.685Z,20.15
2023-04-05T12:52:31.104Z,20.20
2023-04-05T12:54:34.836Z,20.22
2023-04-05T12:56:38.824Z,20.22
2023-04-05T12:58:40.708Z,20.26
2023-04-05T13:00:42.276Z,20.27
2023-04-05T13:02:43.811Z,20.29
2023-04-05T13:04:47.501Z,20.32
2023-04-05T13:06:51.393Z,20.33
2023-04-05T13:08:52.911Z,20.36
2023-04-05T13:10:57.209Z,20.38
2023-04-05T13:12:59.944Z,20.39
2023-04-05T13:15:01.744Z,20.42
2023-04-05T13:17:05.602Z,20.44
2023-04-05T13:19:09.792Z,20.45
2023-04-05T13:21:11.680Z,20.47
2023-04-05T13:23:13.831Z,20.48
2023-04-05T13:25:15.995Z,20.50
2023-04-05T13:27:17.634Z,20.53
2023-04-05T13:29:19.162Z,20.53
2023-04-05T13:31:23.481Z,20.57
2023-04-05T13:33:25.020Z,20.62
2023-04-05T13:35:28.665Z,20.62
2023-04-05T13:37:30.598Z,20.66
2023-04-05T13:39:32.156Z,20.68
2023-04-05T13:41:33.575Z,20.69
2023-04-05T13:43:35.542Z,20.70
2023-04-05T13:45:39.172Z,20.73
2023-04-05T13:47:40.967Z,20.74
2023-04-05T13:49:45.667Z,20.75
2023-04-05T13:51:47.530Z,20.75
2023-04-05T13:53:50.437Z,20.73
2023-04-05T13:55:51.889Z,20.72
2023-04-05T13:57:53.565Z,20.70
2023-04-05T13:59:58.392Z,20.70
2023-04-05T14:02:00.216Z,20.70
2023-04-05T14:04:02.348Z,20.92
2023-04-05T14:06:04.295Z,20.84
2023-04-05T14:08:05.984Z,20.80
2023-04-05T14:10:07.887Z,20.75
2023-04-05T14:12:09.459Z,20.71
2023-04-05T14:14:11.004Z,20.69
2023-04-05T14:16:13.883Z,20.67
2023-04-05T14:18:15.846Z,20.62
2023-04-05T14:20:20.353Z,20.57
2023-04-05T14:22:22.179Z,20.52
2023-04-05T14:24:23.704Z,20.47
2023-04-05T14:26:28.633Z,20.42
2023-04-05T14:28:30.347Z,20.40
2023-04-05T14:30:32.841Z,20.35
2023-04-05T14:32:34.982Z,20.29
2023-04-05T14:34:36.648Z,20.23
2023-04-05T14:36:38.482Z,20.16
2023-04-05T14:38:42.781Z,20.12
2023-04-05T14:40:44.640Z,20.05
2023-04-05T14:42:55.118Z,19.98
2023-04-05T14:44:56.604Z,19.91
2023-04-05T14:46:58.295Z,19.79
2023-04-05T14:48:59.854Z,19.72
2023-04-05T14:51:01.455Z,19.63
2023-04-05T14:53:03.333Z,19.58
2023-04-05T14:55:04.976Z,19.52
2023-04-05T14:57:08.465Z,19.45
2023-04-05T14:59:09.925Z,19.40
2023-04-05T15:01:11.600Z,19.31
2023-04-05T15:03:13.334Z,19.26
2023-04-05T15:05:15.013Z,19.18
2023-04-05T15:07:17.330Z,19.10
2023-04-05T15:09:20.970Z,19.00
2023-04-05T15:11:25.993Z,18.92
2023-04-05T15:13:27.580Z,18.85
2023-04-05T15:15:29.061Z,18.77
2023-04-05T15:17:30.575Z,18.70
2023-04-05T15:19:32.092Z,18.64
2023-04-05T15:21:36.524Z,18.57
2023-04-05T15:23:38.006Z,18.50
2023-04-05T15:25:39.506Z,18.42
2023-04-05T15:27:41.081Z,18.33
2023-04-05T15:29:42.503Z,18.25
2023-04-05T15:31:44.285Z,18.16
2023-04-05T15:33:46.266Z,18.06
2023-04-05T15:35:50.268Z,17.99
2023-04-05T15:37:51.860Z,17.91
2023-04-05T15:39:53.339Z,17.83
2023-04-05T15:41:57.402Z,17.72
2023-04-05T15:43:59.048Z,17.65
2023-04-05T15:46:00.717Z,17.56
2023-04-05T15:48:02.280Z,17.49
2023-04-05T15:50:04.175Z,17.42
2023-04-05T15:52:05.675Z,17.32
2023-04-05T15:54:07.272Z,17.25
2023-04-05T15:56:08.919Z,17.18
2023-04-05T15:58:10.584Z,17.10
2023-04-05T16:00:14.885Z,17.01
2023-04-05T16:02:26.388Z,16.93
2023-04-05T16:04:28.114Z,16.86
2023-04-05T16:06:29.829Z,16.77
2023-04-05T16:08:31.581Z,16.73
2023-04-05T16:10:33.344Z,16.84
2023-04-05T16:12:34.882Z,16.71
2023-04-05T16:14:36.757Z,16.64
2023-04-05T16:16:50.086Z,16.55
2023-04-05T16:18:54.210Z,16.47
2023-04-05T16:20:56.318Z,16.41
2023-04-05T16:22:58.016Z,16.33
2023-04-05T16:24:59.459Z,16.30
2023-04-05T16:27:03.900Z,16.24
2023-04-05T16:29:05.733Z,16.17
2023-04-05T16:31:07.366Z,16.13
2023-04-05T16:33:10.184Z,16.09
2023-04-05T16:35:14.045Z,16.03
2023-04-05T16:37:15.490Z,15.99
2023-04-05T16:39:17.018Z,15.93
2023-04-05T16:41:18.615Z,15.86
2023-04-05T16:43:20.583Z,15.81
2023-04-05T16:45:22.701Z,15.75
2023-04-05T16:47:25.744Z,15.71
2023-04-05T16:49:29.332Z,15.65
2023-04-05T16:51:31.595Z,15.61
2023-04-05T16:53:33.109Z,15.57
2023-04-05T16:55:34.554Z,15.61
2023-04-05T16:57:36.197Z,15.56
2023-04-05T16:59:37.657Z,15.69
2023-04-05T17:01:39.426Z,15.60
2023-04-05T17:03:42.180Z,15.52
2023-04-05T17:05:44.463Z,15.46
2023-04-05T17:07:46.749Z,15.40
2023-04-05T17:09:48.584Z,15.35
2023-04-05T17:11:50.411Z,15.33
2023-04-05T17:13:51.887Z,15.31
2023-04-05T17:15:53.497Z,15.26
2023-04-05T17:17:55.251Z,15.20
2023-04-05T17:19:56.728Z,15.16
2023-04-05T17:22:00.275Z,15.34
2023-04-05T17:24:04.135Z,15.26
2023-04-05T17:26:05.894Z,15.19
2023-04-05T17:28:07.494Z,15.11
2023-04-05T17:30:09.618Z,15.05
2023-04-05T17:32:11.151Z,15.12
2023-04-05T17:34:16.912Z,15.05
2023-04-05T17:36:19.575Z,14.98
2023-04-05T17:38:24.825Z,14.94
2023-04-05T17:40:26.475Z,14.89
2023-04-05T17:42:28.036Z,14.84
2023-04-05T17:44:30.454Z,14.80
2023-04-05T17:46:42.615Z,14.74
2023-04-05T17:48:49.903Z,14.69
2023-04-05T17:50:51.590Z,14.65
2023-04-05T17:52:55.906Z,14.59
2023-04-05T17:54:57.436Z,14.55
2023-04-05T17:56:58.852Z,14.49
2023-04-05T17:59:03.907Z,14.46
2023-04-05T18:01:05.920Z,14.40
2023-04-05T18:03:08.588Z,14.36
2023-04-05T18:05:10.549Z,14.31
2023-04-05T18:07:12.526Z,14.24
2023-04-05T18:09:14.116Z,14.20
2023-04-05T18:11:15.704Z,14.15
2023-04-05T18:13:17.953Z,14.09
2023-04-05T18:15:20.673Z,14.05
2023-04-05T18:17:22.354Z,13.98
2023-04-05T18:19:24.023Z,13.93
2023-04-05T18:21:25.772Z,13.87
2023-04-05T18:23:27.672Z,13.81
2023-04-05T18:25:29.633Z,13.72
2023-04-05T18:27:34.991Z,13.65
2023-04-05T18:29:40.153Z,13.57
2023-04-05T18:31:41.989Z,13.51
2023-04-05T18:33:43.675Z,13.43
2023-04-05T18:35:49.474Z,13.35
2023-04-05T18:37:51.159Z,13.30
2023-04-05T18:39:52.583Z,13.22
2023-04-05T18:41:54.947Z,13.17
2023-04-05T18:43:57.301Z,13.09
2023-04-05T18:45:59.151Z,13.04
2023-04-05T18:48:00.696Z,12.98
2023-04-05T18:50:03.619Z,13.08
2023-04-05T18:52:05.261Z,12.97
2023-04-05T18:54:06.953Z,12.84
2023-04-05T18:56:09.408Z,12.74
2023-04-05T18:58:11.100Z,12.64
2023-04-05T19:00:12.941Z,12.57
2023-04-05T19:02:14.547Z,12.46
2023-04-05T19:04:16.502Z,12.36
2023-04-05T19:06:18.497Z,12.26
2023-04-05T19:08:20.207Z,12.17
2023-04-05T19:10:24.050Z,12.05
2023-04-05T19:12:25.873Z,11.99
2023-04-05T19:14:27.421Z,11.89
2023-04-05T19:16:35.874Z,11.80
2023-04-05T19:18:37.438Z,11.71
2023-04-05T19:20:38.950Z,11.64
2023-04-05T19:22:40.988Z,11.53
2023-04-05T19:24:42.645Z,11.46
2023-04-05T19:26:47.352Z,11.39
2023-04-05T19:28:49.088Z,11.31
2023-04-05T19:30:53.377Z,11.21
2023-04-05T19:32:56.657Z,11.16
2023-04-05T19:34:59.687Z,11.11
2023-04-05T19:37:01.210Z,11.05
2023-04-05T19:39:06.607Z,10.96
2023-04-05T19:41:08.313Z,10.90
2023-04-05T19:43:12.732Z,10.82
2023-04-05T19:45:26.543Z,10.76
2023-04-05T19:47:28.373Z,10.67
2023-04-05T19:49:39.141Z,10.53
2023-04-05T19:51:42.495Z,10.46
2023-04-05T19:53:48.073Z,10.38
2023-04-05T19:55:49.625Z,10.28
2023-04-05T19:57:51.662Z,10.23
2023-04-05T19:59:53.147Z,10.16
2023-04-05T20:01:54.971Z,10.11
2023-04-05T20:03:56.519Z,10.04
2023-04-05T20:06:15.767Z,9.97
2023-04-05T20:08:18.742Z,9.90
2023-04-05T20:10:51.336Z,9.77
2023-04-05T20:12:53.025Z,9.71
2023-04-05T20:14:55.641Z,9.63
2023-04-05T20:16:58.357Z,9.57
2023-04-05T20:19:08.793Z,9.49
2023-04-05T20:21:11.619Z,9.45
2023-04-05T20:23:18.323Z,9.39
2023-04-05T20:25:39.823Z,9.33
2023-04-05T20:27:41.418Z,9.33
2023-04-05T20:29:42.981Z,9.29
2023-04-05T20:31:44.696Z,9.27
2023-04-05T20:34:13.109Z,9.21
2023-04-05T20:36:20.578Z,9.15
2023-04-05T20:38:22.604Z,9.11
2023-04-05T20:40:24.797Z,9.06
2023-04-05T20:42:26.267Z,9.00
2023-04-05T20:44:28.793Z,8.94
2023-04-05T20:46:30.653Z,8.90
2023-04-05T20:48:33.950Z,8.84
2023-04-05T20:50:36.108Z,8.80
2023-04-05T20:52:37.804Z,8.76
2023-04-05T20:54:39.231Z,8.69
2023-04-05T20:56:41.116Z,8.64
2023-04-05T20:58:42.709Z,8.59
2023-04-05T21:00:44.179Z,8.54
2023-04-05T21:02:46.029Z,8.47
2023-04-05T21:04:49.410Z,8.42
2023-04-05T21:06:50.968Z,8.34
2023-04-05T21:08:52.409Z,8.30
2023-04-05T21:10:54.233Z,8.30
2023-04-05T21:12:55.825Z,8.27
2023-04-05T21:15:00.415Z,8.24
2023-04-05T21:17:03.257Z,8.19
2023-04-05T21:19:04.672Z,8.13
2023-04-05T21:21:06.304Z,8.10
2023-04-05T21:23:07.906Z,8.05
2023-04-05T21:25:09.601Z,7.98
2023-04-05T21:27:11.060Z,7.93
2023-04-05T21:29:14.204Z,7.89
2023-04-05T21:31:15.921Z,7.86
2023-04-05T21:33:17.754Z,7.79
2023-04-05T21:35:20.984Z,7.77
2023-04-05T21:37:22.445Z,7.74
2023-04-05T21:39:25.290Z,7.69
2023-04-05T21:41:30.073Z,7.65
2023-04-05T21:43:31.943Z,7.62
2023-04-05T21:45:38.719Z,7.55
2023-04-05T21:47:40.377Z,7.52
2023-04-05T21:49:44.656Z,7.49
2023-04-05T21:51:46.149Z,7.42
2023-04-05T21:53:47.973Z,7.40
2023-04-05T21:55:49.405Z,7.36
2023-04-05T21:57:54.201Z,7.33
2023-04-05T21:59:55.920Z,7.29
2023-04-05T22:01:57.691Z,7.26
2023-04-05T22:03:59.288Z,7.24
2023-04-05T22:06:01.792Z,7.21
2023-04-05T22:08:03.376Z,7.19
2023-04-05T22:10:05.648Z,7.15
2023-04-05T22:12:07.224Z,7.14
2023-04-05T22:14:09.418Z,7.09
2023-04-05T22:16:11.189Z,7.07
2023-04-05T22:18:13.394Z,7.06
2023-04-05T22:20:14.954Z,7.01
2023-04-05T22:22:17.177Z,6.99
2023-04-05T22:24:21.888Z,6.97
2023-04-05T22:26:48.265Z,6.96
2023-04-05T22:28:49.750Z,6.95
2023-04-05T22:30:51.818Z,6.93
2023-04-05T22:32:53.386Z,6.90
2023-04-05T22:35:00.694Z,6.89
2023-04-05T22:37:02.265Z,6.87
2023-04-05T22:39:03.770Z,6.87
2023-04-05T22:41:05.339Z,6.85
2023-04-05T22:43:11.727Z,6.82
2023-04-05T22:45:13.439Z,6.79
2023-04-05T22:47:14.969Z,6.74
2023-04-05T22:49:16.636Z,6.72
2023-04-05T22:51:18.346Z,6.70
2023-04-05T22:53:22.698Z,6.67
2023-04-05T22:55:24.306Z,6.66
2023-04-05T22:57:25.976Z,6.64
2023-04-05T22:59:27.564Z,6.63
2023-04-05T23:01:29.227Z,6.60
2023-04-05T23:03:31.181Z,6.59
2023-04-05T23:05:35.988Z,6.58
2023-04-05T23:07:40.068Z,6.55
2023-04-05T23:09:41.712Z,6.51
2023-04-05T23:11:43.366Z,6.51
2023-04-05T23:13:44.941Z,6.48
2023-04-05T23:15:46.547Z,6.45
2023-04-05T23:17:49.597Z,6.43
2023-04-05T23:19:51.533Z,6.39
2023-04-05T23:21:53.716Z,6.36
2023-04-05T23:23:55.593Z,6.35
2023-04-05T23:25:57.109Z,6.32
2023-04-05T23:27:58.618Z,6.30
2023-04-05T23:30:03.148Z,6.28
2023-04-05T23:32:07.493Z,6.25
2023-04-05T23:34:11.236Z,6.24
2023-04-05T23:36:14.936Z,6.22
2023-04-05T23:38:16.589Z,6.19
2023-04-05T23:40:18.028Z,6.19
2023-04-05T23:42:19.623Z,6.16
2023-04-05T23:44:21.263Z,6.12
2023-04-05T23:46:22.980Z,6.07
2023-04-05T23:48:27.496Z,6.07
2023-04-05T23:50:28.943Z,6.05
2023-04-05T23:52:30.476Z,6.03
2023-04-05T23:54:35.025Z,5.99
2023-04-05T23:56:36.578Z,5.99
2023-04-05T23:58:38.015Z,5.97
